Time;durP1;ratioP1;P1;durP2;ratioP2;P2;SDS_P1;SDS_P2;PMS_P1;PMS_P2;Temp;Humidity;BMP_temperature;BMP_pressure;BME280_temperature;BME280_humidity;BME280_pressure;Samples;Min_cycle;Max_cycle;Signal;HPM_P1;HPM_P2
2022/06/25 00:02:27;;;;;;;10.98;2.55;;;26.00;55.50;;;;;;5006802;28;20669;-76
2022/06/25 00:07:41;;;;;;;5.30;2.15;;;26.00;55.80;;;;;;5003467;28;20192;-75
2022/06/25 00:10:11;;;;;;;7.35;2.40;;;26.00;55.80;;;;;;5001610;28;20582;-75
2022/06/25 00:12:38;;;;;;;3.50;2.17;;;26.00;55.80;;;;;;5011967;28;20204;-75
2022/06/25 00:15:08;;;;;;;3.20;1.83;;;25.90;55.90;;;;;;5010357;28;20279;-75
2022/06/25 00:17:36;;;;;;;4.57;2.30;;;25.90;55.90;;;;;;5005564;28;20203;-75
2022/06/25 00:20:08;;;;;;;6.93;2.35;;;25.90;55.70;;;;;;5010662;28;20258;-75
2022/06/25 00:22:36;;;;;;;5.10;1.98;;;25.90;55.70;;;;;;5011410;28;20189;-75
2022/06/25 00:25:05;;;;;;;3.53;1.98;;;25.90;55.60;;;;;;5011771;28;20211;-75
2022/06/25 00:27:35;;;;;;;2.90;1.92;;;25.90;55.60;;;;;;5014930;28;20209;-75
2022/06/25 00:30:05;;;;;;;3.50;1.90;;;25.90;55.60;;;;;;5007984;28;20215;-75
2022/06/25 00:32:33;;;;;;;4.47;1.92;;;25.90;55.50;;;;;;5003307;28;20238;-74
2022/06/25 00:35:02;;;;;;;2.65;1.50;;;25.90;55.40;;;;;;5004804;28;20198;-75
2022/06/25 00:37:30;;;;;;;4.72;1.75;;;25.90;55.30;;;;;;5006877;28;20715;-76
2022/06/25 00:39:59;;;;;;;5.35;1.60;;;25.90;55.20;;;;;;5007330;28;20215;-75
2022/06/25 00:42:28;;;;;;;3.58;1.65;;;25.90;55.20;;;;;;5016158;28;20214;-75
2022/06/25 00:44:58;;;;;;;3.17;1.80;;;25.90;55.20;;;;;;5013656;28;20598;-75
2022/06/25 00:47:26;;;;;;;5.15;1.67;;;25.90;55.20;;;;;;5007953;28;20197;-75
2022/06/25 00:49:54;;;;;;;4.90;1.70;;;25.90;55.20;;;;;;5015640;28;20219;-74
2022/06/25 00:52:25;;;;;;;3.75;1.50;;;25.90;55.10;;;;;;5007299;28;20203;-75
2022/06/25 00:54:59;;;;;;;7.65;1.63;;;25.90;55.00;;;;;;5005943;28;20715;-74
2022/06/25 00:57:29;;;;;;;2.47;1.42;;;25.90;55.00;;;;;;5006955;28;20184;-74
2022/06/25 01:00:04;;;;;;;2.95;1.60;;;25.90;55.00;;;;;;5006548;28;20315;-75
2022/06/25 01:02:33;;;;;;;7.10;2.03;;;25.90;55.00;;;;;;5005786;28;20188;-74
2022/06/25 01:05:04;;;;;;;2.88;1.58;;;25.90;54.90;;;;;;5008794;28;20196;-74
2022/06/25 01:07:33;;;;;;;2.22;1.35;;;25.90;55.00;;;;;;5004028;28;20265;-74
2022/06/25 01:10:02;;;;;;;6.00;1.55;;;25.90;55.10;;;;;;5005545;28;20236;-74
2022/06/25 01:12:31;;;;;;;5.63;1.55;;;25.90;55.10;;;;;;5004809;28;20197;-74
2022/06/25 01:15:07;;;;;;;2.72;1.45;;;25.90;55.00;;;;;;5004492;28;20232;-74
2022/06/25 01:17:36;;;;;;;3.58;1.70;;;25.90;55.10;;;;;;4999621;28;20250;-74
2022/06/25 01:20:05;;;;;;;2.95;1.65;;;25.90;55.10;;;;;;5011645;28;20739;-74
2022/06/25 01:22:35;;;;;;;3.60;1.63;;;25.90;55.20;;;;;;5011769;28;20203;-74
2022/06/25 01:25:04;;;;;;;2.75;1.75;;;25.80;55.20;;;;;;5013148;28;20568;-74
2022/06/25 01:27:33;;;;;;;3.38;1.52;;;25.80;55.20;;;;;;5012551;28;20673;-74
2022/06/25 01:30:03;;;;;;;2.58;1.40;;;25.80;55.20;;;;;;5006637;28;20342;-74
2022/06/25 01:32:32;;;;;;;2.85;1.67;;;25.80;55.20;;;;;;5015153;28;20200;-74
2022/06/25 01:35:00;;;;;;;2.65;1.48;;;25.80;55.20;;;;;;5016322;28;20220;-74
2022/06/25 01:37:29;;;;;;;3.85;1.75;;;25.80;55.20;;;;;;5009206;28;20288;-74
2022/06/25 01:39:59;;;;;;;5.25;1.90;;;25.80;55.30;;;;;;5007810;28;20203;-74
2022/06/25 01:45:14;;;;;;;4.70;1.83;;;25.70;55.50;;;;;;5007739;28;20192;-74
2022/06/25 01:47:42;;;;;;;6.35;1.63;;;25.70;55.40;;;;;;5003373;28;20196;-74
2022/06/25 01:50:12;;;;;;;3.75;1.60;;;25.60;55.40;;;;;;5006685;28;20220;-75
2022/06/25 01:52:42;;;;;;;4.22;1.65;;;25.60;55.40;;;;;;5019339;28;20200;-75
2022/06/25 01:55:12;;;;;;;2.53;1.50;;;25.60;55.50;;;;;;5007521;28;20204;-74
2022/06/25 01:57:41;;;;;;;7.55;1.80;;;25.60;55.70;;;;;;5013069;28;20203;-75
2022/06/25 02:00:12;;;;;;;2.33;1.27;;;25.50;55.70;;;;;;5015866;28;20196;-74
2022/06/25 02:02:42;;;;;;;3.35;1.73;;;25.50;55.80;;;;;;5005270;28;20203;-75
2022/06/25 02:05:13;;;;;;;4.03;1.70;;;25.50;56.00;;;;;;5008701;28;20448;-74
2022/06/25 02:07:41;;;;;;;3.47;1.40;;;25.50;56.30;;;;;;5005634;28;20196;-75
2022/06/25 02:10:10;;;;;;;2.97;1.63;;;25.40;56.40;;;;;;5008487;28;20215;-74
2022/06/25 02:12:40;;;;;;;1.77;1.42;;;25.40;56.70;;;;;;5006327;28;20192;-74
2022/06/25 02:15:09;;;;;;;3.25;1.73;;;25.30;56.80;;;;;;5004270;28;20196;-75
2022/06/25 02:17:37;;;;;;;4.30;2.05;;;25.20;56.90;;;;;;5001795;28;20187;-74
2022/06/25 02:20:07;;;;;;;3.13;1.65;;;25.20;57.00;;;;;;5004308;28;20306;-74
2022/06/25 02:22:36;;;;;;;2.88;1.75;;;25.20;57.30;;;;;;5004156;28;20203;-74
2022/06/25 02:25:05;;;;;;;3.08;1.50;;;25.20;57.40;;;;;;5010886;28;20196;-74
2022/06/25 02:27:35;;;;;;;2.45;1.77;;;25.10;57.50;;;;;;5008952;28;20204;-73
2022/06/25 02:30:06;;;;;;;5.20;2.00;;;25.10;57.50;;;;;;5002614;28;20546;-74
2022/06/25 02:32:34;;;;;;;5.13;2.00;;;25.00;57.60;;;;;;5014363;28;20203;-75
2022/06/25 02:35:03;;;;;;;2.15;1.38;;;25.00;57.70;;;;;;5012034;28;20211;-75
2022/06/25 02:37:32;;;;;;;3.25;1.85;;;25.00;57.80;;;;;;5004232;28;20215;-75
2022/06/25 02:40:00;;;;;;;9.82;2.25;;;25.00;58.00;;;;;;5009127;28;20315;-76
2022/06/25 02:42:34;;;;;;;5.82;2.28;;;25.00;58.10;;;;;;5015877;28;20191;-76
2022/06/25 02:45:05;;;;;;;3.75;2.17;;;24.90;58.10;;;;;;5000947;28;20196;-75
2022/06/25 02:47:34;;;;;;;3.92;1.95;;;24.90;58.20;;;;;;5008172;28;20201;-75
2022/06/25 02:50:04;;;;;;;7.05;2.25;;;24.80;58.40;;;;;;5014900;28;20188;-75
2022/06/25 02:52:33;;;;;;;3.55;2.20;;;24.80;58.50;;;;;;5008233;28;20199;-75
2022/06/25 02:55:01;;;;;;;4.97;2.45;;;24.80;58.70;;;;;;5009802;28;20193;-76
2022/06/25 03:00:14;;;;;;;5.47;2.58;;;24.70;59.00;;;;;;4979657;28;20200;-74
2022/06/25 03:02:43;;;;;;;4.15;2.40;;;24.70;59.20;;;;;;4998920;28;20188;-75
2022/06/25 03:05:11;;;;;;;6.55;2.50;;;24.60;59.30;;;;;;5007047;28;20788;-74
2022/06/25 03:07:40;;;;;;;8.52;2.40;;;24.60;59.40;;;;;;5009100;28;20196;-75
2022/06/25 03:10:09;;;;;;;5.18;2.42;;;24.60;59.40;;;;;;5004972;28;21143;-75
2022/06/25 03:12:37;;;;;;;7.50;2.75;;;24.50;59.40;;;;;;5007709;28;20209;-74
2022/06/25 03:15:07;;;;;;;5.88;2.40;;;24.50;59.50;;;;;;5009422;28;20188;-74
2022/06/25 03:17:36;;;;;;;6.45;2.38;;;24.50;59.60;;;;;;5012938;28;20204;-75
2022/06/25 03:20:06;;;;;;;3.67;2.10;;;24.50;59.80;;;;;;5002947;28;20227;-75
2022/06/25 03:22:34;;;;;;;7.22;2.55;;;24.50;59.80;;;;;;5023013;28;20198;-75
2022/06/25 03:25:03;;;;;;;6.75;2.65;;;24.50;59.90;;;;;;5006124;28;20209;-76
2022/06/25 03:27:31;;;;;;;8.45;3.05;;;24.40;60.00;;;;;;5009037;28;20196;-75
2022/06/25 03:30:00;;;;;;;6.15;2.65;;;24.50;60.20;;;;;;5005374;28;20204;-74
2022/06/25 03:32:29;;;;;;;8.50;2.55;;;24.40;60.30;;;;;;5002725;28;20285;-74
2022/06/25 03:35:01;;;;;;;4.25;2.42;;;24.40;60.50;;;;;;5016903;28;20199;-75
2022/06/25 03:37:29;;;;;;;5.63;2.75;;;24.40;60.50;;;;;;5012118;28;20292;-74
2022/06/25 03:39:59;;;;;;;5.55;2.58;;;24.40;60.70;;;;;;5012638;28;20192;-74
2022/06/25 03:42:27;;;;;;;8.45;2.65;;;24.40;60.70;;;;;;5013853;28;20191;-75
2022/06/25 03:44:55;;;;;;;5.10;2.67;;;24.40;60.80;;;;;;5010835;28;20228;-75
2022/06/25 03:47:24;;;;;;;8.35;2.72;;;24.40;60.80;;;;;;5021746;28;20200;-75
2022/06/25 03:49:53;;;;;;;7.63;2.95;;;24.40;61.00;;;;;;5024581;28;20196;-74
2022/06/25 03:52:23;;;;;;;7.93;3.00;;;24.40;61.10;;;;;;5017164;28;20220;-75
2022/06/25 03:54:52;;;;;;;5.68;3.17;;;24.50;61.30;;;;;;5021626;28;20204;-75
2022/06/25 03:57:20;;;;;;;10.20;3.17;;;24.50;61.40;;;;;;5014105;28;20195;-77
2022/06/25 03:59:49;;;;;;;5.93;2.70;;;24.50;61.90;;;;;;5010677;28;20208;-77
2022/06/25 04:02:17;;;;;;;5.43;2.67;;;24.50;62.10;;;;;;5012704;28;20895;-75
2022/06/25 04:04:45;;;;;;;9.00;2.58;;;24.40;62.00;;;;;;5025962;28;20192;-75
2022/06/25 04:07:14;;;;;;;5.55;3.00;;;24.40;62.30;;;;;;5014056;28;20596;-74
2022/06/25 04:09:43;;;;;;;10.38;3.33;;;24.50;62.50;;;;;;5017833;28;20200;-75
2022/06/25 04:12:13;;;;;;;8.32;3.00;;;24.40;62.60;;;;;;5023969;28;20613;-75
2022/06/25 04:14:41;;;;;;;5.00;3.22;;;24.40;62.60;;;;;;5016453;28;20203;-75
2022/06/25 04:17:09;;;;;;;9.52;3.38;;;24.50;62.70;;;;;;5017426;28;20195;-75
2022/06/25 04:19:41;;;;;;;8.20;3.42;;;24.50;62.80;;;;;;5015002;28;20236;-75
2022/06/25 04:22:09;;;;;;;6.30;3.70;;;24.50;62.90;;;;;;5016373;28;20204;-77
2022/06/25 04:24:39;;;;;;;6.53;3.30;;;24.40;62.90;;;;;;5011854;28;20196;-74
2022/06/25 04:29:03;;;;;;;5.78;3.10;;;24.40;62.90;;;;;;5017272;28;20203;-74
2022/06/25 04:29:57;;;;;;;6.30;2.90;;;24.50;63.00;;;;;;5009326;28;20231;-75
2022/06/25 04:32:25;;;;;;;5.80;3.42;;;24.50;63.00;;;;;;5015860;28;20220;-74
2022/06/25 04:34:53;;;;;;;7.20;3.45;;;24.50;63.10;;;;;;5007706;28;20635;-75
2022/06/25 04:37:22;;;;;;;7.07;3.20;;;24.50;63.30;;;;;;5022332;28;20188;-75
2022/06/25 04:39:50;;;;;;;6.28;3.00;;;24.60;63.30;;;;;;5015045;28;20188;-75
2022/06/25 04:42:20;;;;;;;7.45;2.90;;;24.60;63.50;;;;;;5018601;28;20802;-75
2022/06/25 04:44:48;;;;;;;5.25;3.38;;;24.60;63.50;;;;;;5006353;28;20196;-75
2022/06/25 04:47:16;;;;;;;6.85;3.03;;;24.70;63.90;;;;;;5013121;28;20197;-75
2022/06/25 04:49:45;;;;;;;6.68;3.17;;;24.70;63.90;;;;;;5014442;28;20207;-75
2022/06/25 04:52:13;;;;;;;7.93;3.03;;;24.70;64.10;;;;;;5013404;28;20216;-74
2022/06/25 04:54:42;;;;;;;9.10;2.92;;;24.80;64.20;;;;;;5013739;28;20192;-75
2022/06/25 04:57:15;;;;;;;6.55;3.28;;;24.80;64.00;;;;;;5013935;28;20184;-75
2022/06/25 04:59:45;;;;;;;5.00;2.90;;;24.80;64.10;;;;;;5008043;28;20200;-74
2022/06/25 05:02:13;;;;;;;4.57;3.20;;;24.90;63.90;;;;;;5008158;28;20274;-75
2022/06/25 05:04:42;;;;;;;7.20;3.35;;;25.00;64.10;;;;;;5005266;28;20196;-74
2022/06/25 05:07:10;;;;;;;8.25;3.10;;;25.00;64.10;;;;;;5013641;28;20191;-75
2022/06/25 05:09:39;;;;;;;6.60;3.15;;;25.00;64.40;;;;;;5014917;28;20223;-74
2022/06/25 05:12:08;;;;;;;6.07;2.50;;;25.00;64.20;;;;;;5014095;28;20223;-74
2022/06/25 05:14:36;;;;;;;4.43;2.88;;;25.00;64.10;;;;;;5019741;28;20193;-74
2022/06/25 05:17:06;;;;;;;7.90;3.22;;;25.10;64.10;;;;;;5022909;28;20223;-75
2022/06/25 05:19:34;;;;;;;6.72;2.80;;;25.20;64.10;;;;;;5018396;28;20651;-75
2022/06/25 05:22:03;;;;;;;5.13;2.70;;;25.20;63.90;;;;;;5016012;28;20196;-75
2022/06/25 05:24:31;;;;;;;7.13;2.72;;;25.30;64.00;;;;;;5013111;28;20207;-75
2022/06/25 05:26:59;;;;;;;5.82;3.03;;;25.30;63.90;;;;;;5020876;28;20203;-75
2022/06/25 05:29:28;;;;;;;4.72;2.40;;;25.30;63.60;;;;;;5015291;28;20200;-75
2022/06/25 05:32:00;;;;;;;3.72;2.45;;;25.40;63.50;;;;;;5019667;28;20731;-75
2022/06/25 05:34:30;;;;;;;5.43;2.30;;;25.40;63.30;;;;;;5018277;28;20203;-74
2022/06/25 05:36:58;;;;;;;3.95;2.25;;;25.50;63.20;;;;;;5021744;28;20811;-74
2022/06/25 05:39:27;;;;;;;4.15;2.00;;;25.60;63.10;;;;;;5019558;28;20640;-75
2022/06/25 05:41:55;;;;;;;5.35;2.22;;;25.70;63.20;;;;;;5014463;28;20550;-76
2022/06/25 05:44:23;;;;;;;4.25;2.50;;;25.70;63.10;;;;;;5016605;28;20199;-75
2022/06/25 05:46:52;;;;;;;3.38;2.10;;;25.80;63.00;;;;;;5013515;28;20195;-74
2022/06/25 05:49:20;;;;;;;5.68;2.03;;;25.80;62.80;;;;;;5016869;28;20195;-75
2022/06/25 05:51:50;;;;;;;5.88;1.83;;;25.90;62.70;;;;;;5015885;28;20231;-74
2022/06/25 05:54:19;;;;;;;6.78;2.00;;;26.00;62.40;;;;;;5016279;28;20195;-74
2022/06/25 05:56:47;;;;;;;2.83;1.90;;;26.00;62.10;;;;;;5019195;28;20195;-73
2022/06/25 05:59:16;;;;;;;3.30;1.92;;;26.10;62.10;;;;;;5017653;28;20426;-74
2022/06/25 06:01:44;;;;;;;4.10;2.70;;;26.10;61.60;;;;;;5023979;28;20202;-74
2022/06/25 06:04:13;;;;;;;3.58;1.80;;;26.20;61.20;;;;;;5012497;28;20192;-74
2022/06/25 06:06:41;;;;;;;3.30;1.63;;;26.30;60.80;;;;;;5014881;28;20195;-74
2022/06/25 06:09:13;;;;;;;3.88;1.60;;;26.30;60.50;;;;;;5027259;28;20223;-74
2022/06/25 06:11:41;;;;;;;6.07;2.05;;;26.40;60.10;;;;;;5009388;28;20196;-74
2022/06/25 06:14:10;;;;;;;3.05;1.70;;;26.50;60.00;;;;;;5032758;28;20230;-74
2022/06/25 06:16:38;;;;;;;3.83;1.70;;;26.50;59.90;;;;;;5020687;28;20195;-74
2022/06/25 06:19:07;;;;;;;2.90;1.75;;;26.60;59.70;;;;;;5014174;28;20200;-73
2022/06/25 06:21:35;;;;;;;3.58;1.90;;;26.60;59.60;;;;;;4976389;28;20671;-73
2022/06/25 06:24:03;;;;;;;4.40;2.13;;;26.70;59.40;;;;;;4979565;28;20201;-73
2022/06/25 06:26:33;;;;;;;3.90;1.95;;;26.80;59.50;;;;;;4979261;28;20203;-74
2022/06/25 06:29:02;;;;;;;5.28;1.98;;;26.80;59.30;;;;;;4994371;28;20184;-73
2022/06/25 06:31:30;;;;;;;4.07;2.28;;;26.90;59.30;;;;;;4996035;28;20215;-73
2022/06/25 06:33:59;;;;;;;7.18;2.30;;;26.90;59.00;;;;;;4995705;28;20822;-73
2022/06/25 06:36:27;;;;;;;4.60;2.03;;;27.00;58.70;;;;;;5000340;28;20193;-73
2022/06/25 06:38:55;;;;;;;5.80;2.20;;;27.00;58.50;;;;;;4996741;28;20204;-73
2022/06/25 06:41:24;;;;;;;6.38;2.13;;;27.10;58.40;;;;;;4991957;28;20195;-72
2022/06/25 06:43:54;;;;;;;3.20;1.88;;;27.10;58.30;;;;;;5001556;28;20189;-73
2022/06/25 06:46:22;;;;;;;9.25;2.00;;;27.20;58.30;;;;;;4992457;28;20196;-74
2022/06/25 06:48:51;;;;;;;12.13;2.20;;;27.20;58.50;;;;;;5016418;28;20635;-73
2022/06/25 06:51:19;;;;;;;3.35;1.85;;;27.20;58.40;;;;;;4998015;28;20192;-72
2022/06/25 06:53:47;;;;;;;4.22;2.10;;;27.30;58.40;;;;;;4998308;28;20248;-72
2022/06/25 06:56:16;;;;;;;2.70;1.70;;;27.30;58.00;;;;;;4996815;28;20200;-71
2022/06/25 06:58:44;;;;;;;5.90;1.92;;;27.40;58.00;;;;;;5013698;28;20690;-71
2022/06/25 07:01:14;;;;;;;3.63;1.75;;;27.40;57.70;;;;;;5000408;28;20201;-72
2022/06/25 07:03:42;;;;;;;7.10;2.20;;;27.50;57.80;;;;;;4993547;28;20198;-72
2022/06/25 07:06:11;;;;;;;3.03;1.92;;;27.50;57.80;;;;;;4992789;28;20188;-71
2022/06/25 07:08:39;;;;;;;4.63;2.30;;;27.60;57.70;;;;;;4995371;28;20201;-71
2022/06/25 07:11:28;;;;;;;4.88;1.90;;;27.70;57.60;;;;;;4995141;28;20212;-71
2022/06/25 07:13:57;;;;;;;2.88;1.83;;;27.70;57.60;;;;;;4986140;28;20274;-75
2022/06/25 07:16:27;;;;;;;3.70;2.13;;;27.80;57.30;;;;;;5000678;28;20199;-71
2022/06/25 07:18:57;;;;;;;3.53;2.20;;;27.80;57.30;;;;;;4992583;28;20192;-71
2022/06/25 07:21:26;;;;;;;3.67;2.22;;;27.90;57.10;;;;;;5015035;28;20231;-71
2022/06/25 07:23:55;;;;;;;5.60;2.15;;;28.00;57.10;;;;;;5022239;28;20594;-71
2022/06/25 07:26:24;;;;;;;4.53;2.10;;;28.00;57.10;;;;;;5014812;28;20203;-71
2022/06/25 07:28:53;;;;;;;8.43;2.00;;;28.10;57.00;;;;;;5015678;28;20601;-71
2022/06/25 07:31:21;;;;;;;7.97;2.08;;;28.10;56.50;;;;;;5010880;28;20192;-72
2022/06/25 07:33:51;;;;;;;5.38;2.22;;;28.10;56.50;;;;;;5015371;28;20228;-71
2022/06/25 07:36:20;;;;;;;2.88;1.98;;;28.20;56.50;;;;;;5009182;28;20204;-71
2022/06/25 07:38:48;;;;;;;5.85;1.92;;;28.10;56.30;;;;;;5014947;28;21307;-71
2022/06/25 07:41:16;;;;;;;9.68;2.03;;;28.20;56.20;;;;;;5015866;28;20191;-72
2022/06/25 07:43:45;;;;;;;7.57;2.00;;;28.20;56.20;;;;;;5014884;28;20203;-72
2022/06/25 07:46:13;;;;;;;5.07;2.20;;;28.30;56.40;;;;;;5017903;28;20202;-72
2022/06/25 07:48:41;;;;;;;5.45;2.13;;;28.30;56.30;;;;;;5010751;28;20196;-72
2022/06/25 07:53:57;;;;;;;5.32;2.03;;;28.40;55.70;;;;;;5006933;28;20597;-74
2022/06/25 07:56:25;;;;;;;3.55;1.70;;;28.40;55.20;;;;;;5023633;28;20196;-73
2022/06/25 07:58:54;;;;;;;3.65;2.10;;;28.40;55.30;;;;;;5007941;28;20204;-73
2022/06/25 08:01:22;;;;;;;4.80;2.10;;;28.50;55.40;;;;;;5014351;28;20657;-72
2022/06/25 08:03:50;;;;;;;3.35;2.00;;;28.50;55.40;;;;;;5011744;28;20623;-72
2022/06/25 08:06:20;;;;;;;4.32;1.95;;;28.60;55.60;;;;;;5007571;28;20227;-73
2022/06/25 08:08:48;;;;;;;2.55;1.90;;;28.60;55.40;;;;;;5016704;28;20200;-72
2022/06/25 08:11:17;;;;;;;3.42;2.00;;;28.60;55.40;;;;;;5011605;28;20204;-73
2022/06/25 08:13:46;;;;;;;4.15;1.83;;;28.70;55.20;;;;;;5018284;28;20220;-73
2022/06/25 08:16:14;;;;;;;3.20;1.70;;;28.70;54.50;;;;;;5026317;28;20191;-73
2022/06/25 08:18:42;;;;;;;4.28;2.10;;;28.70;54.30;;;;;;5013392;28;20638;-73
2022/06/25 08:21:11;;;;;;;3.42;1.83;;;28.80;54.30;;;;;;5013750;28;20230;-73
2022/06/25 08:23:41;;;;;;;2.90;1.80;;;28.80;54.20;;;;;;5010635;28;20207;-74
2022/06/25 08:26:10;;;;;;;6.60;1.83;;;28.80;54.20;;;;;;5017250;28;20199;-73
2022/06/25 08:28:38;;;;;;;3.72;2.10;;;28.90;54.20;;;;;;5015077;28;20195;-73
2022/06/25 08:31:07;;;;;;;4.50;2.00;;;28.90;54.10;;;;;;5017756;28;20215;-74
2022/06/25 08:33:35;;;;;;;2.83;1.80;;;28.90;53.90;;;;;;5021429;28;20231;-74
2022/06/25 08:36:05;;;;;;;3.78;1.67;;;29.00;53.70;;;;;;5014155;28;20854;-75
2022/06/25 08:38:33;;;;;;;4.10;2.00;;;29.00;53.50;;;;;;5018639;28;20191;-72
2022/06/25 08:41:07;;;;;;;3.75;2.20;;;29.00;53.00;;;;;;5014444;28;20196;-75
2022/06/25 08:43:36;;;;;;;2.72;1.70;;;29.00;52.90;;;;;;5022850;28;20187;-73
2022/06/25 08:46:05;;;;;;;3.80;1.90;;;29.10;53.00;;;;;;5017793;28;20646;-74
2022/06/25 08:48:36;;;;;;;4.57;1.80;;;29.10;53.10;;;;;;5017201;28;20552;-73
2022/06/25 08:51:08;;;;;;;5.28;1.85;;;29.10;53.10;;;;;;5019681;28;20219;-74
2022/06/25 08:53:37;;;;;;;6.63;2.03;;;29.20;53.10;;;;;;5021072;28;21037;-73
2022/06/25 08:56:09;;;;;;;4.57;1.73;;;29.20;52.90;;;;;;5021240;28;20200;-73
2022/06/25 08:58:37;;;;;;;3.95;1.80;;;29.20;52.10;;;;;;5026354;28;20192;-74
2022/06/25 09:01:05;;;;;;;4.38;1.60;;;29.30;52.30;;;;;;5015870;28;20204;-72
2022/06/25 09:03:34;;;;;;;2.83;1.70;;;29.30;52.60;;;;;;5017530;28;20275;-73
2022/06/25 09:06:14;;;;;;;4.50;2.08;;;29.40;52.70;;;;;;5019800;28;20398;-73
2022/06/25 09:08:43;;;;;;;2.88;1.83;;;29.40;52.40;;;;;;5017425;28;20206;-72
2022/06/25 09:11:13;;;;;;;5.30;1.73;;;29.40;52.20;;;;;;5022196;28;20217;-73
2022/06/25 09:13:41;;;;;;;2.25;1.48;;;29.40;52.30;;;;;;5021805;28;20876;-72
2022/06/25 09:16:24;;;;;;;4.20;1.95;;;29.50;52.40;;;;;;5020023;28;20662;-72
2022/06/25 09:18:53;;;;;;;2.65;1.73;;;29.50;51.50;;;;;;5017403;28;20187;-72
2022/06/25 09:21:21;;;;;;;4.03;1.92;;;29.50;51.50;;;;;;5014316;28;20941;-73
2022/06/25 09:24:00;;;;;;;3.67;1.85;;;29.60;51.80;;;;;;5018636;28;20187;-73
2022/06/25 09:26:30;;;;;;;3.90;1.65;;;29.60;51.90;;;;;;5013583;28;20219;-73
2022/06/25 09:29:02;;;;;;;3.28;1.92;;;29.70;52.10;;;;;;5017958;28;20196;-73
2022/06/25 09:31:37;;;;;;;3.42;1.52;;;29.80;52.20;;;;;;5023447;28;20740;-73
2022/06/25 09:34:08;;;;;;;2.58;1.55;;;29.80;51.90;;;;;;5023369;28;20588;-73
2022/06/25 09:36:37;;;;;;;4.55;1.67;;;29.90;51.80;;;;;;5016589;28;20203;-73
2022/06/25 09:39:06;;;;;;;4.40;1.83;;;30.00;51.80;;;;;;5016122;28;20200;-74
2022/06/25 09:41:57;;;;;;;2.08;1.67;;;30.10;51.80;;;;;;5009512;28;20240;-74
2022/06/25 09:44:47;;;;;;;4.50;1.88;;;30.10;50.70;;;;;;5019935;28;20287;-75
2022/06/25 09:47:36;;;;;;;4.25;1.83;;;30.20;51.00;;;;;;5020913;28;20234;-75
2022/06/25 09:50:27;;;;;;;6.20;1.90;;;30.30;50.90;;;;;;5023418;28;20947;-74
2022/06/25 09:53:33;;;;;;;3.47;2.15;;;30.30;50.70;;;;;;5022080;28;20592;-74
2022/06/25 09:56:28;;;;;;;3.28;1.70;;;30.40;50.50;;;;;;5009189;28;20246;-75
2022/06/25 09:59:23;;;;;;;4.22;1.50;;;30.50;50.30;;;;;;5012182;28;20283;-75
2022/06/25 10:02:04;;;;;;;4.20;1.77;;;30.50;50.30;;;;;;5013424;28;20563;-74
2022/06/25 10:04:34;;;;;;;4.63;1.60;;;30.60;50.00;;;;;;5022162;28;20769;-74
2022/06/25 10:07:08;;;;;;;4.80;1.77;;;30.70;50.10;;;;;;5021163;28;20215;-73
2022/06/25 10:09:42;;;;;;;2.75;1.60;;;30.70;50.30;;;;;;5020630;28;20240;-74
2022/06/25 10:12:15;;;;;;;2.92;1.60;;;30.80;50.20;;;;;;5007502;28;20200;-74
2022/06/25 10:14:46;;;;;;;2.67;1.80;;;30.90;50.30;;;;;;5005688;28;20353;-74
2022/06/25 10:17:16;;;;;;;4.63;1.88;;;30.90;50.20;;;;;;5019025;28;20199;-75
2022/06/25 10:19:58;;;;;;;2.05;1.50;;;31.00;49.50;;;;;;5017057;28;20671;-75
2022/06/25 10:22:28;;;;;;;8.70;1.67;;;31.00;49.20;;;;;;4997436;28;20205;-74
2022/06/25 10:24:59;;;;;;;7.88;1.60;;;31.10;49.10;;;;;;4992358;28;20201;-74
2022/06/25 10:27:27;;;;;;;2.22;1.60;;;31.20;49.20;;;;;;4989012;28;20209;-74
2022/06/25 10:29:58;;;;;;;2.58;1.70;;;31.20;48.90;;;;;;4999598;28;20215;-72
2022/06/25 10:32:27;;;;;;;5.10;2.03;;;31.20;48.40;;;;;;4985398;28;20196;-72
2022/06/25 10:34:56;;;;;;;3.92;1.73;;;31.20;48.40;;;;;;4982885;28;20225;-73
2022/06/25 10:37:25;;;;;;;6.57;1.90;;;31.30;48.40;;;;;;4992095;28;20195;-72
2022/06/25 10:39:56;;;;;;;4.65;2.00;;;31.30;48.10;;;;;;5002196;28;20231;-73
2022/06/25 10:45:52;;;;;;;5.38;1.85;;;31.40;48.20;;;;;;4996359;28;20205;-73
2022/06/25 10:48:23;;;;;;;3.53;1.70;;;31.50;48.40;;;;;;5003540;28;20810;-73
2022/06/25 10:50:52;;;;;;;8.48;1.88;;;31.50;48.20;;;;;;5011790;28;20207;-72
2022/06/25 10:53:26;;;;;;;5.22;1.67;;;31.60;48.30;;;;;;4992814;28;20193;-73
2022/06/25 10:56:16;;;;;;;4.03;1.52;;;31.70;48.10;;;;;;4989339;28;20910;-73
2022/06/25 10:58:48;;;;;;;2.40;1.70;;;31.70;48.10;;;;;;4995959;28;20192;-72
2022/06/25 11:01:32;;;;;;;3.22;1.80;;;31.80;48.20;;;;;;4992617;28;20207;-73
2022/06/25 11:04:04;;;;;;;3.22;1.88;;;31.80;48.00;;;;;;4993499;28;20202;-74
2022/06/25 11:06:44;;;;;;;2.72;1.60;;;31.90;48.00;;;;;;4990941;28;20196;-74
2022/06/25 11:09:19;;;;;;;2.20;1.67;;;32.00;48.00;;;;;;4989677;28;20216;-74
2022/06/25 11:11:49;;;;;;;3.15;1.45;;;32.00;47.30;;;;;;4985779;28;20208;-73
2022/06/25 11:14:36;;;;;;;2.97;1.80;;;32.00;47.00;;;;;;4997109;28;20193;-73
2022/06/25 11:17:11;;;;;;;3.22;2.00;;;32.10;47.30;;;;;;4983985;28;20205;-74
2022/06/25 11:19:42;;;;;;;4.35;2.08;;;32.10;47.40;;;;;;4996451;28;20219;-74
2022/06/25 11:22:11;;;;;;;2.80;1.85;;;32.20;47.80;;;;;;5037170;28;20192;-74
2022/06/25 11:28:47;;;;;;;3.00;1.40;;;32.30;47.70;;;;;;5027204;28;20869;-73
2022/06/25 11:30:17;;;;;;;3.25;1.55;;;32.40;46.20;;;;;;5032020;28;20195;-73
2022/06/25 11:32:47;;;;;;;5.47;1.88;;;32.40;46.20;;;;;;5038213;28;20191;-74
2022/06/25 11:35:15;;;;;;;6.15;2.75;;;32.50;46.50;;;;;;5036990;28;20218;-75
2022/06/25 11:37:44;;;;;;;5.07;1.95;;;32.60;46.70;;;;;;5038123;28;20672;-73
2022/06/25 11:40:16;;;;;;;5.10;2.67;;;32.60;47.00;;;;;;5031422;28;20274;-73
2022/06/25 11:42:47;;;;;;;7.20;1.73;;;32.60;46.20;;;;;;5038407;28;20195;-74
2022/06/25 11:45:15;;;;;;;4.05;1.73;;;32.60;46.20;;;;;;5028085;28;20203;-73
2022/06/25 11:47:44;;;;;;;3.15;1.63;;;32.60;46.30;;;;;;5041875;28;20249;-74
2022/06/25 11:50:14;;;;;;;5.03;1.80;;;32.60;46.40;;;;;;5039755;28;20286;-74
2022/06/25 11:52:44;;;;;;;8.88;5.03;;;32.50;46.60;;;;;;5032385;28;20202;-73
2022/06/25 11:55:13;;;;;;;4.68;2.13;;;32.50;46.80;;;;;;5036357;28;20207;-73
2022/06/25 11:57:43;;;;;;;5.85;1.80;;;32.60;46.80;;;;;;5039497;28;20207;-73
2022/06/25 12:00:14;;;;;;;7.75;4.05;;;32.70;46.70;;;;;;5039238;28;20194;-74
2022/06/25 12:02:43;;;;;;;4.05;2.60;;;32.70;46.70;;;;;;5040279;28;20207;-73
2022/06/25 12:05:13;;;;;;;3.58;1.95;;;32.70;46.60;;;;;;5041874;28;20680;-75
2022/06/25 12:07:46;;;;;;;2.63;1.52;;;32.70;46.40;;;;;;5038628;28;20187;-74
2022/06/25 12:10:14;;;;;;;5.88;1.60;;;32.70;46.00;;;;;;5039884;28;20202;-74
2022/06/25 12:12:49;;;;;;;3.88;1.98;;;32.70;46.00;;;;;;5044252;28;20210;-74
2022/06/25 12:15:18;;;;;;;5.93;2.83;;;32.60;46.20;;;;;;5042875;28;20230;-74
2022/06/25 12:17:48;;;;;;;9.80;4.97;;;32.60;46.50;;;;;;5040091;28;20199;-73
2022/06/25 12:20:18;;;;;;;3.22;2.05;;;32.60;46.90;;;;;;5043908;28;20761;-75
2022/06/25 12:22:52;;;;;;;4.13;1.50;;;32.70;46.90;;;;;;5042275;28;20197;-74
2022/06/25 12:25:24;;;;;;;3.75;1.80;;;32.70;46.70;;;;;;5030151;28;20199;-74
2022/06/25 12:27:53;;;;;;;3.83;1.52;;;32.90;47.00;;;;;;5042901;28;20198;-74
2022/06/25 12:30:23;;;;;;;3.03;1.60;;;32.90;46.80;;;;;;5044109;28;20199;-74
2022/06/25 12:32:52;;;;;;;3.67;1.52;;;33.10;46.80;;;;;;5044008;28;20202;-74
2022/06/25 12:35:25;;;;;;;1.90;1.38;;;33.10;46.60;;;;;;5039851;28;20355;-74
2022/06/25 12:38:03;;;;;;;6.28;1.73;;;33.20;45.70;;;;;;5031810;28;20191;-74
2022/06/25 12:40:33;;;;;;;3.90;1.67;;;33.30;45.60;;;;;;5041136;28;20202;-74
2022/06/25 12:43:02;;;;;;;6.38;2.45;;;33.20;45.40;;;;;;5035991;28;20183;-74
2022/06/25 12:45:32;;;;;;;3.13;1.70;;;33.40;45.80;;;;;;5031517;28;20195;-74
2022/06/25 12:48:09;;;;;;;7.07;1.80;;;33.30;45.20;;;;;;5039878;28;20464;-74
2022/06/25 12:50:45;;;;;;;5.43;2.20;;;33.40;45.50;;;;;;5042468;28;20261;-74
2022/06/25 12:53:16;;;;;;;5.60;1.80;;;33.60;45.70;;;;;;5031231;28;20198;-75
2022/06/25 12:55:46;;;;;;;2.30;1.55;;;33.80;45.70;;;;;;5039700;28;20222;-74
2022/06/25 12:58:15;;;;;;;4.05;1.70;;;34.00;45.20;;;;;;5044488;28;20612;-74
2022/06/25 13:00:45;;;;;;;4.25;2.22;;;34.20;44.80;;;;;;5041321;28;20196;-75
2022/06/25 13:03:16;;;;;;;5.25;2.97;;;34.40;44.40;;;;;;5033816;28;20222;-74
2022/06/25 13:05:46;;;;;;;3.13;1.50;;;34.60;43.90;;;;;;5033780;28;20199;-74
2022/06/25 13:08:14;;;;;;;2.33;1.65;;;34.80;43.50;;;;;;5034757;28;20191;-74
2022/06/25 13:10:43;;;;;;;2.08;1.58;;;34.90;43.60;;;;;;5034920;28;20204;-74
2022/06/25 13:13:11;;;;;;;2.25;1.33;;;35.00;43.40;;;;;;5041152;28;20272;-74
2022/06/25 13:15:39;;;;;;;3.25;1.35;;;35.10;43.00;;;;;;5037842;28;20191;-75
2022/06/25 13:18:08;;;;;;;2.30;1.30;;;35.20;42.50;;;;;;5038889;28;20195;-74
2022/06/25 13:20:36;;;;;;;2.65;1.60;;;35.10;42.50;;;;;;5029255;28;20829;-75